createdAt,value
2018-09-19T00:00:49.805Z,90.10
2018-09-19T00:03:23.878Z,90.20
2018-09-19T00:05:58.033Z,90.60
2018-09-19T00:08:31.875Z,90.70
2018-09-19T00:11:06.273Z,91.00
2018-09-19T00:13:40.684Z,90.80
2018-09-19T00:16:14.539Z,90.90
2018-09-19T00:18:48.464Z,91.00
2018-09-19T00:21:22.406Z,91.10
2018-09-19T00:23:56.366Z,91.20
2018-09-19T00:26:30.335Z,91.30
2018-09-19T00:29:04.295Z,91.50
2018-09-19T00:31:38.535Z,91.70
2018-09-19T00:34:12.512Z,91.70
2018-09-19T00:36:46.711Z,91.80
2018-09-19T00:39:20.714Z,91.80
2018-09-19T00:41:54.758Z,92.00
2018-09-19T00:44:28.663Z,92.00
2018-09-19T00:47:02.689Z,92.30
2018-09-19T00:49:36.467Z,92.70
2018-09-19T00:52:10.365Z,92.90
2018-09-19T00:54:51.221Z,93.00
2018-09-19T00:57:25.895Z,93.40
2018-09-19T00:59:59.929Z,93.40
2018-09-19T01:02:34.160Z,93.40
2018-09-19T01:05:08.148Z,93.70
2018-09-19T01:07:43.577Z,94.00
2018-09-19T01:10:18.482Z,93.90
2018-09-19T01:12:52.376Z,94.20
2018-09-19T01:15:26.332Z,94.20
2018-09-19T01:18:00.347Z,94.30
2018-09-19T01:20:34.943Z,94.60
2018-09-19T01:23:09.070Z,94.90
2018-09-19T01:25:42.858Z,95.20
2018-09-19T01:28:16.748Z,95.20
2018-09-19T01:30:50.800Z,95.70
2018-09-19T01:33:24.740Z,95.70
2018-09-19T01:35:58.907Z,95.90
2018-09-19T01:38:32.843Z,96.40
2018-09-19T01:41:06.986Z,96.40
2018-09-19T01:43:40.742Z,97.00
2018-09-19T01:46:14.592Z,96.90
2018-09-19T01:48:49.196Z,97.20
2018-09-19T01:51:23.407Z,97.30
2018-09-19T01:53:57.344Z,97.40
2018-09-19T01:56:32.128Z,97.50
2018-09-19T01:59:06.243Z,97.80
2018-09-19T02:01:40.017Z,98.20
2018-09-19T02:04:14.977Z,97.80
2018-09-19T02:06:49.207Z,97.90
2018-09-19T02:09:23.305Z,97.90
2018-09-19T02:11:57.380Z,98.00
2018-09-19T02:14:31.255Z,98.10
2018-09-19T02:17:05.494Z,98.20
2018-09-19T02:19:39.507Z,98.30
2018-09-19T02:22:13.433Z,99.00
2018-09-19T02:24:47.677Z,99.00
2018-09-19T02:27:21.717Z,99.10
2018-09-19T02:29:55.464Z,99.10
2018-09-19T02:32:29.402Z,99.10
2018-09-19T02:35:03.236Z,99.20
2018-09-19T02:37:37.189Z,99.20
2018-09-19T02:40:11.114Z,99.20
2018-09-19T02:42:45.662Z,99.30
2018-09-19T02:45:19.644Z,99.40
2018-09-19T02:47:53.798Z,99.50
2018-09-19T02:50:27.795Z,99.60
2018-09-19T02:53:02.047Z,99.80
2018-09-19T02:55:36.703Z,99.90
2018-09-19T02:58:10.988Z,99.90
2018-09-19T03:00:45.856Z,99.90
2018-09-19T03:03:20.497Z,99.90
2018-09-19T03:05:55.139Z,99.90
2018-09-19T03:08:29.643Z,99.90
2018-09-19T03:11:03.718Z,99.90
2018-09-19T03:13:37.739Z,99.90
2018-09-19T03:16:11.608Z,99.90
2018-09-19T03:18:45.637Z,99.90
2018-09-19T03:21:19.394Z,99.90
2018-09-19T03:23:53.809Z,99.90
2018-09-19T03:26:27.854Z,99.90
2018-09-19T03:29:01.740Z,99.90
2018-09-19T03:31:35.717Z,99.90
2018-09-19T03:34:09.505Z,99.90
2018-09-19T03:36:43.340Z,99.90
2018-09-19T03:39:17.472Z,99.90
2018-09-19T03:41:51.903Z,99.90
2018-09-19T03:44:25.868Z,99.90
2018-09-19T03:47:00.062Z,99.90
2018-09-19T03:49:33.945Z,99.90
2018-09-19T03:52:07.941Z,99.90
2018-09-19T03:54:42.015Z,99.90
2018-09-19T03:57:15.853Z,99.90
2018-09-19T03:59:50.032Z,99.90
2018-09-19T04:02:24.080Z,99.90
2018-09-19T04:04:59.327Z,99.90
2018-09-19T04:07:34.501Z,99.90
2018-09-19T04:10:08.310Z,99.90
2018-09-19T04:12:43.013Z,99.90
2018-09-19T04:15:17.063Z,99.90
2018-09-19T04:17:51.608Z,99.90
2018-09-19T04:20:25.577Z,99.90
2018-09-19T04:22:59.816Z,99.90
2018-09-19T04:25:34.205Z,99.90
2018-09-19T04:28:07.963Z,99.90
2018-09-19T04:30:42.489Z,99.90
2018-09-19T04:33:16.429Z,99.90
2018-09-19T04:35:50.831Z,99.90
2018-09-19T04:38:25.009Z,99.90
2018-09-19T04:40:59.462Z,99.90
2018-09-19T04:43:33.858Z,99.90
2018-09-19T04:46:07.719Z,99.90
2018-09-19T04:48:42.649Z,99.90
2018-09-19T04:51:16.834Z,99.90
2018-09-19T04:53:51.292Z,99.90
2018-09-19T04:56:25.187Z,99.90
2018-09-19T04:59:00.025Z,99.90
2018-09-19T05:01:34.103Z,99.90
2018-09-19T05:04:08.162Z,99.90
2018-09-19T05:06:42.753Z,99.90
2018-09-19T05:09:16.786Z,99.90
2018-09-19T05:11:50.598Z,99.90
2018-09-19T05:14:24.631Z,99.90
2018-09-19T05:16:59.020Z,99.90
2018-09-19T05:19:33.313Z,99.90
2018-09-19T05:22:07.244Z,99.90
2018-09-19T05:24:41.352Z,99.90
2018-09-19T05:27:15.602Z,99.90
2018-09-19T05:29:49.557Z,99.90
2018-09-19T05:32:24.343Z,99.90
2018-09-19T05:34:58.732Z,99.90
2018-09-19T05:37:32.900Z,99.90
2018-09-19T05:40:07.162Z,99.90
2018-09-19T05:42:40.994Z,99.90
2018-09-19T05:45:14.779Z,99.90
2018-09-19T05:47:48.978Z,99.90
2018-09-19T05:50:22.990Z,99.90
2018-09-19T05:52:57.551Z,99.90
2018-09-19T05:55:31.498Z,99.90
2018-09-19T05:58:06.054Z,99.90
2018-09-19T06:00:40.168Z,99.90
2018-09-19T06:03:15.083Z,99.90
2018-09-19T06:05:49.163Z,99.90
2018-09-19T06:08:23.088Z,99.90
2018-09-19T06:10:57.362Z,99.90
2018-09-19T06:13:31.433Z,99.90
2018-09-19T06:16:05.599Z,99.90
2018-09-19T06:18:39.619Z,99.90
2018-09-19T06:21:13.644Z,99.90
2018-09-19T06:23:47.459Z,99.90
2018-09-19T06:26:22.114Z,99.90
2018-09-19T06:28:56.332Z,99.90
2018-09-19T06:31:30.552Z,99.90
2018-09-19T06:34:04.814Z,99.90
2018-09-19T06:36:39.693Z,99.90
2018-09-19T06:39:13.702Z,99.90
2018-09-19T06:41:47.678Z,99.90
2018-09-19T06:44:22.508Z,99.90
2018-09-19T06:46:56.952Z,99.90
2018-09-19T06:49:30.780Z,99.90
2018-09-19T06:52:05.317Z,99.90
2018-09-19T06:54:39.263Z,99.90
2018-09-19T06:57:13.125Z,99.90
2018-09-19T06:59:48.159Z,99.90
2018-09-19T07:02:22.114Z,99.90
2018-09-19T07:04:56.142Z,99.90
2018-09-19T07:07:30.439Z,99.90
2018-09-19T07:10:04.579Z,99.90
2018-09-19T07:12:38.709Z,99.90
2018-09-19T07:15:13.043Z,99.90
2018-09-19T07:17:46.989Z,99.90
2018-09-19T07:20:21.668Z,99.90
2018-09-19T07:22:56.354Z,99.90
2018-09-19T07:25:30.354Z,99.90
2018-09-19T07:28:04.604Z,99.90
2018-09-19T07:30:45.517Z,99.60
2018-09-19T07:33:19.498Z,99.40
2018-09-19T07:35:53.379Z,98.20
2018-09-19T07:38:27.539Z,97.80
2018-09-19T07:41:01.520Z,96.70
2018-09-19T07:43:35.668Z,96.40
2018-09-19T07:46:10.167Z,95.90
2018-09-19T07:48:44.552Z,94.30
2018-09-19T07:51:18.562Z,93.90
2018-09-19T07:53:52.702Z,92.70
2018-09-19T07:56:26.828Z,92.20
2018-09-19T07:59:01.108Z,91.10
2018-09-19T08:01:35.717Z,90.70
2018-09-19T08:04:09.689Z,91.10
2018-09-19T08:06:43.979Z,90.70
2018-09-19T08:09:18.119Z,89.30
2018-09-19T08:11:51.980Z,88.50
2018-09-19T08:14:26.163Z,87.40
2018-09-19T08:17:00.130Z,87.00
2018-09-19T08:19:34.034Z,86.10
2018-09-19T08:22:09.004Z,85.30
2018-09-19T08:24:42.841Z,85.00
2018-09-19T08:27:16.658Z,84.20
2018-09-19T08:29:50.805Z,83.90
2018-09-19T08:32:25.305Z,83.10
2018-09-19T08:34:59.288Z,83.20
2018-09-19T08:37:34.160Z,82.70
2018-09-19T08:40:08.298Z,82.60
2018-09-19T08:42:42.360Z,82.40
2018-09-19T08:45:16.579Z,81.20
2018-09-19T08:47:50.570Z,80.90
2018-09-19T08:50:24.532Z,80.40
2018-09-19T08:52:58.789Z,80.00
2018-09-19T08:55:32.945Z,80.70
2018-09-19T08:58:07.103Z,80.00
2018-09-19T09:00:41.306Z,79.70
2018-09-19T09:03:15.976Z,79.60
2018-09-19T09:05:49.884Z,79.20
2018-09-19T09:08:23.837Z,77.70
2018-09-19T09:10:58.263Z,77.80
2018-09-19T09:13:32.874Z,77.50
2018-09-19T09:16:06.980Z,77.70
2018-09-19T09:18:40.772Z,77.20
2018-09-19T09:21:14.692Z,77.20
2018-09-19T09:23:48.826Z,76.10
2018-09-19T09:26:23.107Z,75.70
2018-09-19T09:28:57.294Z,75.40
2018-09-19T09:31:31.227Z,75.30
2018-09-19T09:34:05.206Z,74.90
2018-09-19T09:36:39.499Z,75.00
2018-09-19T09:39:14.113Z,74.50
2018-09-19T09:41:48.764Z,74.40
2018-09-19T09:44:22.780Z,73.90
2018-09-19T09:46:56.931Z,74.30
2018-09-19T09:49:30.890Z,74.30
2018-09-19T09:52:05.292Z,74.70
2018-09-19T09:54:39.299Z,75.40
2018-09-19T09:57:13.043Z,75.10
2018-09-19T09:59:46.982Z,75.70
2018-09-19T10:02:20.904Z,74.60
2018-09-19T10:04:54.968Z,75.60
2018-09-19T10:07:29.407Z,75.30
2018-09-19T10:10:03.129Z,74.60
2018-09-19T10:12:37.308Z,74.50
2018-09-19T10:15:11.163Z,72.60
2018-09-19T10:17:45.468Z,72.20
2018-09-19T10:20:20.451Z,72.10
2018-09-19T10:22:55.387Z,72.50
2018-09-19T10:25:29.790Z,73.90
2018-09-19T10:28:04.157Z,73.00
2018-09-19T10:30:38.379Z,73.50
2018-09-19T10:33:12.260Z,73.10
2018-09-19T10:35:46.260Z,73.10
2018-09-19T10:38:20.384Z,73.20
2018-09-19T10:40:54.997Z,72.50
2018-09-19T10:43:29.198Z,72.40
2018-09-19T10:46:03.155Z,72.60
2018-09-19T10:48:37.864Z,72.10
2018-09-19T10:51:12.370Z,72.00
2018-09-19T10:53:46.574Z,71.60
2018-09-19T10:56:20.917Z,72.00
2018-09-19T10:59:01.601Z,71.70
2018-09-19T11:01:35.494Z,71.60
2018-09-19T11:04:09.644Z,70.80
2018-09-19T11:06:43.700Z,70.00
2018-09-19T11:09:17.941Z,70.00
2018-09-19T11:11:52.329Z,70.30
2018-09-19T11:14:26.328Z,69.40
2018-09-19T11:17:00.461Z,69.60
2018-09-19T11:19:34.369Z,68.80
2018-09-19T11:22:08.326Z,68.60
2018-09-19T11:24:42.506Z,68.40
2018-09-19T11:27:16.595Z,68.80
2018-09-19T11:29:50.836Z,68.90
2018-09-19T11:32:24.848Z,67.90
2018-09-19T11:34:59.143Z,67.90
2018-09-19T11:37:32.976Z,66.60
2018-09-19T11:40:07.099Z,66.00
2018-09-19T11:42:41.103Z,65.70
2018-09-19T11:45:15.468Z,65.50
2018-09-19T11:47:49.814Z,66.40
2018-09-19T11:50:23.933Z,65.90
2018-09-19T11:52:58.020Z,65.30
2018-09-19T11:55:32.064Z,64.70
2018-09-19T11:58:06.194Z,64.30
2018-09-19T12:00:40.123Z,64.20
2018-09-19T12:03:14.365Z,63.60
2018-09-19T12:05:48.357Z,63.10
2018-09-19T12:08:22.364Z,62.30
2018-09-19T12:10:56.638Z,63.20
2018-09-19T12:13:30.647Z,62.60
2018-09-19T12:16:04.728Z,62.30
2018-09-19T12:18:38.901Z,61.30
2018-09-19T12:21:12.859Z,60.50
2018-09-19T12:23:46.674Z,60.40
2018-09-19T12:26:20.910Z,60.10
2018-09-19T12:28:54.908Z,60.50
2018-09-19T12:31:29.212Z,60.20
2018-09-19T12:34:03.159Z,60.40
2018-09-19T12:36:37.322Z,60.70
2018-09-19T12:39:11.792Z,60.40
2018-09-19T12:41:45.647Z,60.70
2018-09-19T12:44:19.792Z,61.30
2018-09-19T12:46:54.004Z,61.20
2018-09-19T12:49:28.003Z,61.80
2018-09-19T12:52:02.241Z,62.10
2018-09-19T12:54:36.404Z,62.20
2018-09-19T12:57:10.645Z,61.60
2018-09-19T12:59:44.587Z,61.50
2018-09-19T13:02:18.657Z,61.10
2018-09-19T13:04:53.102Z,60.70
2018-09-19T13:07:26.939Z,60.90
2018-09-19T13:10:02.513Z,61.10
2018-09-19T13:12:36.722Z,60.40
2018-09-19T13:15:10.687Z,60.30
2018-09-19T13:17:45.557Z,59.80
2018-09-19T13:20:19.889Z,59.90
2018-09-19T13:22:54.992Z,59.10
2018-09-19T13:25:30.258Z,58.30
2018-09-19T13:28:04.251Z,58.20
2018-09-19T13:30:38.222Z,57.80
2018-09-19T13:33:12.489Z,57.90
2018-09-19T13:35:53.259Z,57.70
2018-09-19T13:38:28.610Z,58.60
2018-09-19T13:41:03.514Z,58.00
2018-09-19T13:43:38.514Z,58.50
2018-09-19T13:46:12.691Z,59.10
2018-09-19T13:48:55.179Z,59.30
2018-09-19T13:51:29.626Z,58.30
2018-09-19T13:54:03.973Z,57.50
2018-09-19T13:56:38.394Z,56.10
2018-09-19T13:59:12.870Z,55.40
2018-09-19T14:01:47.215Z,54.10
2018-09-19T14:04:21.570Z,53.10
2018-09-19T14:06:55.623Z,51.90
2018-09-19T14:09:29.738Z,52.10
2018-09-19T14:12:04.362Z,50.90
2018-09-19T14:14:38.519Z,50.80
2018-09-19T14:17:12.662Z,50.20
2018-09-19T14:19:46.829Z,49.40
2018-09-19T14:22:21.888Z,48.90
2018-09-19T14:24:56.937Z,48.60
2018-09-19T14:27:31.169Z,48.60
2018-09-19T14:30:06.169Z,49.40
2018-09-19T14:32:40.757Z,49.00
2018-09-19T14:35:15.461Z,48.90
2018-09-19T14:37:50.134Z,48.90
2018-09-19T14:40:24.798Z,49.50
2018-09-19T14:43:00.230Z,49.60
2018-09-19T14:45:34.461Z,49.30
2018-09-19T14:48:08.978Z,49.50
2018-09-19T14:50:43.275Z,49.70
2018-09-19T14:53:17.711Z,48.70
2018-09-19T14:55:51.727Z,49.50
2018-09-19T14:58:26.608Z,48.20
2018-09-19T15:01:00.982Z,48.80
2018-09-19T15:03:35.478Z,48.10
2018-09-19T15:06:10.168Z,49.40
2018-09-19T15:08:44.281Z,48.80
2018-09-19T15:11:18.358Z,49.10
2018-09-19T15:13:53.341Z,49.00
2018-09-19T15:16:27.491Z,49.90
2018-09-19T15:19:02.655Z,50.20
2018-09-19T15:21:36.793Z,50.20
2018-09-19T15:24:10.898Z,50.30
2018-09-19T15:26:45.804Z,51.10
2018-09-19T15:29:19.791Z,51.00
2018-09-19T15:31:53.805Z,50.50
2018-09-19T15:34:28.538Z,50.90
2018-09-19T15:37:03.358Z,50.20
2018-09-19T15:39:38.767Z,50.10
2018-09-19T15:42:12.625Z,50.30
2018-09-19T15:44:46.710Z,49.90
2018-09-19T15:47:20.927Z,50.50
2018-09-19T15:49:55.358Z,50.40
2018-09-19T15:52:29.370Z,50.20
2018-09-19T15:55:03.512Z,50.30
2018-09-19T15:57:37.926Z,50.20
2018-09-19T16:00:12.714Z,50.30
2018-09-19T16:02:46.983Z,51.10
2018-09-19T16:05:21.181Z,51.40
2018-09-19T16:07:55.989Z,51.50
2018-09-19T16:10:30.400Z,51.60
2018-09-19T16:13:04.639Z,51.80
2018-09-19T16:15:38.991Z,51.00
2018-09-19T16:18:13.457Z,50.80
2018-09-19T16:20:47.883Z,50.90
2018-09-19T16:23:22.951Z,50.20
2018-09-19T16:25:57.554Z,49.90
2018-09-19T16:28:32.029Z,50.40
2018-09-19T16:31:07.025Z,51.10
2018-09-19T16:33:41.526Z,51.80
2018-09-19T16:36:16.567Z,52.60
2018-09-19T16:38:50.830Z,53.00
2018-09-19T16:41:25.399Z,53.70
2018-09-19T16:44:00.619Z,54.40
2018-09-19T16:46:35.590Z,54.80
2018-09-19T16:49:10.924Z,55.20
2018-09-19T16:51:45.877Z,55.80
2018-09-19T16:54:19.850Z,56.30
2018-09-19T16:56:54.204Z,57.00
2018-09-19T16:59:28.873Z,57.60
2018-09-19T17:02:03.113Z,57.70
2018-09-19T17:04:37.464Z,58.10
2018-09-19T17:07:12.414Z,57.60
2018-09-19T17:09:47.669Z,57.70
2018-09-19T17:12:22.170Z,57.40
2018-09-19T17:14:56.540Z,56.90
2018-09-19T17:17:35.120Z,57.20
2018-09-19T17:20:10.645Z,57.40
2018-09-19T17:22:45.018Z,58.20
2018-09-19T17:25:19.494Z,57.20
2018-09-19T17:27:53.570Z,57.30
2018-09-19T17:30:27.699Z,58.50
2018-09-19T17:33:01.929Z,58.80
2018-09-19T17:35:36.190Z,60.90
2018-09-19T17:38:10.480Z,60.40
2018-09-19T17:40:44.711Z,61.80
2018-09-19T17:43:18.976Z,62.20
2018-09-19T17:45:53.198Z,62.50
2018-09-19T17:48:27.521Z,63.50
2018-09-19T17:51:01.805Z,64.00
2018-09-19T17:53:35.860Z,64.40
2018-09-19T17:56:10.692Z,65.30
2018-09-19T17:58:45.791Z,65.80
2018-09-19T18:01:20.258Z,66.50
2018-09-19T18:03:54.438Z,66.70
2018-09-19T18:06:28.888Z,67.20
2018-09-19T18:09:03.903Z,68.20
2018-09-19T18:11:38.361Z,68.50
2018-09-19T18:14:13.034Z,69.20
2018-09-19T18:16:47.226Z,69.90
2018-09-19T18:19:22.411Z,70.70
2018-09-19T18:21:56.716Z,71.70
2018-09-19T18:24:31.078Z,72.10
2018-09-19T18:27:05.610Z,72.70
2018-09-19T18:29:40.037Z,72.90
2018-09-19T18:32:15.118Z,73.20
2018-09-19T18:34:50.283Z,74.60
2018-09-19T18:37:25.294Z,75.50
2018-09-19T18:40:00.523Z,75.70
2018-09-19T18:42:34.896Z,75.60
2018-09-19T18:45:09.044Z,75.80
2018-09-19T18:47:43.297Z,75.90
2018-09-19T18:50:17.448Z,75.70
2018-09-19T18:52:51.721Z,75.70
2018-09-19T18:55:26.254Z,76.20
2018-09-19T18:58:00.438Z,76.50
2018-09-19T19:00:34.784Z,76.60
2018-09-19T19:03:09.268Z,77.10
2018-09-19T19:05:44.189Z,77.90
2018-09-19T19:08:18.346Z,78.70
2018-09-19T19:10:53.652Z,78.90
2018-09-19T19:13:28.456Z,79.40
2018-09-19T19:16:02.960Z,79.40
2018-09-19T19:18:37.380Z,79.50
2018-09-19T19:21:11.379Z,79.70
2018-09-19T19:23:45.583Z,80.00
2018-09-19T19:26:20.645Z,81.00
2018-09-19T19:28:56.523Z,80.90
2018-09-19T19:31:30.658Z,81.00
2018-09-19T19:34:05.545Z,81.40
2018-09-19T19:36:40.580Z,81.50
2018-09-19T19:39:16.066Z,81.90
2018-09-19T19:41:50.525Z,82.50
2018-09-19T19:44:24.666Z,82.90
2018-09-19T19:46:59.627Z,83.10
2018-09-19T19:49:33.778Z,83.90
2018-09-19T19:52:07.915Z,84.30
2018-09-19T19:54:41.824Z,84.30
2018-09-19T19:57:16.645Z,84.40
2018-09-19T19:59:51.475Z,84.60
2018-09-19T20:02:26.084Z,84.70
2018-09-19T20:05:01.120Z,85.00
2018-09-19T20:07:34.984Z,84.80
2018-09-19T20:10:09.140Z,84.90
2018-09-19T20:12:43.270Z,84.50
2018-09-19T20:15:17.150Z,84.80
2018-09-19T20:17:51.854Z,83.90
2018-09-19T20:20:25.777Z,84.40
2018-09-19T20:22:59.934Z,84.70
2018-09-19T20:25:34.671Z,85.30
2018-09-19T20:28:08.821Z,86.10
2018-09-19T20:30:43.185Z,86.50
2018-09-19T20:33:17.248Z,86.60
2018-09-19T20:38:32.328Z,86.70
2018-09-19T20:41:06.357Z,86.50
2018-09-19T20:43:40.328Z,87.00
2018-09-19T20:46:14.240Z,86.30
2018-09-19T20:48:49.071Z,86.60
2018-09-19T20:51:23.303Z,86.40
2018-09-19T20:53:57.381Z,86.30
2018-09-19T20:56:31.629Z,86.40
2018-09-19T20:59:06.003Z,87.30
2018-09-19T21:01:41.039Z,87.40
2018-09-19T21:04:15.407Z,87.50
2018-09-19T21:06:49.613Z,87.70
2018-09-19T21:09:25.292Z,87.90
2018-09-19T21:11:59.861Z,88.20
2018-09-19T21:14:34.426Z,88.70
2018-09-19T21:17:09.056Z,89.60
2018-09-19T21:19:42.975Z,89.40
2018-09-19T21:22:17.992Z,89.80
2018-09-19T21:24:52.068Z,89.70
2018-09-19T21:27:26.405Z,90.00
2018-09-19T21:30:00.610Z,90.10
2018-09-19T21:32:34.538Z,90.20
2018-09-19T21:35:08.664Z,90.40
2018-09-19T21:37:43.338Z,90.80
2018-09-19T21:40:17.358Z,90.90
2018-09-19T21:42:51.454Z,91.10
2018-09-19T21:45:25.607Z,91.10
2018-09-19T21:47:59.928Z,91.40
2018-09-19T21:50:34.109Z,91.50
2018-09-19T21:53:08.274Z,91.50
2018-09-19T21:55:43.219Z,91.30
2018-09-19T21:58:17.444Z,91.30
2018-09-19T22:00:57.168Z,91.70
2018-09-19T22:03:39.586Z,91.90
2018-09-19T22:06:14.040Z,92.10
2018-09-19T22:08:48.255Z,92.30
2018-09-19T22:11:22.218Z,92.40
2018-09-19T22:13:56.540Z,92.60
2018-09-19T22:16:30.588Z,92.70
2018-09-19T22:19:04.916Z,92.90
2018-09-19T22:21:39.297Z,92.80
2018-09-19T22:24:13.428Z,92.90
2018-09-19T22:26:47.519Z,92.80
2018-09-19T22:29:22.493Z,92.90
2018-09-19T22:32:00.185Z,93.00
2018-09-19T22:34:35.082Z,92.90
2018-09-19T22:37:09.119Z,92.90
2018-09-19T22:39:43.533Z,93.10
2018-09-19T22:42:18.301Z,93.10
2018-09-19T22:44:52.407Z,93.10
2018-09-19T22:47:26.742Z,93.10
2018-09-19T22:50:00.888Z,93.20
2018-09-19T22:52:35.488Z,93.30
2018-09-19T22:55:09.804Z,93.20
2018-09-19T22:57:44.341Z,93.10
2018-09-19T23:00:18.242Z,93.10
2018-09-19T23:02:52.357Z,93.10
2018-09-19T23:05:26.473Z,93.30
2018-09-19T23:08:00.471Z,93.50
2018-09-19T23:10:34.959Z,93.60
2018-09-19T23:13:09.383Z,93.70
2018-09-19T23:15:43.717Z,93.80
2018-09-19T23:18:18.572Z,93.90
2018-09-19T23:20:52.922Z,94.00
2018-09-19T23:23:27.722Z,94.20
2018-09-19T23:26:01.867Z,94.20
2018-09-19T23:28:35.949Z,94.30
2018-09-19T23:31:10.761Z,94.30
2018-09-19T23:33:45.505Z,94.40
2018-09-19T23:36:19.505Z,94.50
2018-09-19T23:38:54.352Z,94.50
2018-09-19T23:41:29.108Z,94.60
2018-09-19T23:44:02.991Z,94.60
2018-09-19T23:46:38.141Z,94.50
2018-09-19T23:49:12.883Z,94.50
2018-09-19T23:51:47.358Z,94.70
2018-09-19T23:54:21.459Z,94.60
2018-09-19T23:56:55.448Z,94.70
2018-09-19T23:59:29.451Z,94.50
